sensor_id;sensor_type;location;lat;lon;timestamp;P1;durP1;ratioP1;P2;durP2;ratioP2
5060;SDS011;2549;52.128;21.068;2024-03-17T00:00:22;13.10;;;1.60;;
5060;SDS011;2549;52.128;21.068;2024-03-17T00:02:48;3.25;;;1.98;;
5060;SDS011;2549;52.128;21.068;2024-03-17T00:05:14;3.53;;;1.45;;
5060;SDS011;2549;52.128;21.068;2024-03-17T00:07:41;5.57;;;2.03;;
5060;SDS011;2549;52.128;21.068;2024-03-17T00:10:07;5.60;;;1.47;;
5060;SDS011;2549;52.128;21.068;2024-03-17T00:12:33;7.68;;;1.80;;
5060;SDS011;2549;52.128;21.068;2024-03-17T00:14:59;3.75;;;2.60;;
5060;SDS011;2549;52.128;21.068;2024-03-17T00:17:26;3.10;;;1.48;;
5060;SDS011;2549;52.128;21.068;2024-03-17T00:19:52;7.77;;;1.70;;
5060;SDS011;2549;52.128;21.068;2024-03-17T00:22:18;10.30;;;2.50;;
5060;SDS011;2549;52.128;21.068;2024-03-17T00:24:45;8.18;;;1.75;;
5060;SDS011;2549;52.128;21.068;2024-03-17T00:27:11;8.65;;;2.03;;
5060;SDS011;2549;52.128;21.068;2024-03-17T00:29:38;14.63;;;1.73;;
5060;SDS011;2549;52.128;21.068;2024-03-17T00:32:04;16.43;;;3.73;;
5060;SDS011;2549;52.128;21.068;2024-03-17T00:34:31;4.87;;;1.33;;
5060;SDS011;2549;52.128;21.068;2024-03-17T00:36:57;6.38;;;1.73;;
5060;SDS011;2549;52.128;21.068;2024-03-17T00:39:24;5.13;;;2.00;;
5060;SDS011;2549;52.128;21.068;2024-03-17T00:41:50;3.70;;;1.50;;
5060;SDS011;2549;52.128;21.068;2024-03-17T00:44:16;9.97;;;2.33;;
5060;SDS011;2549;52.128;21.068;2024-03-17T00:46:42;9.57;;;2.40;;
5060;SDS011;2549;52.128;21.068;2024-03-17T00:49:12;11.93;;;2.10;;
5060;SDS011;2549;52.128;21.068;2024-03-17T00:51:38;4.90;;;1.42;;
5060;SDS011;2549;52.128;21.068;2024-03-17T00:54:04;6.80;;;1.93;;
5060;SDS011;2549;52.128;21.068;2024-03-17T00:56:30;6.77;;;1.57;;
5060;SDS011;2549;52.128;21.068;2024-03-17T00:58:56;4.18;;;1.63;;
5060;SDS011;2549;52.128;21.068;2024-03-17T01:01:22;7.80;;;2.10;;
5060;SDS011;2549;52.128;21.068;2024-03-17T01:03:48;3.90;;;1.73;;
5060;SDS011;2549;52.128;21.068;2024-03-17T01:06:14;9.32;;;2.15;;
5060;SDS011;2549;52.128;21.068;2024-03-17T01:08:40;9.43;;;1.53;;
5060;SDS011;2549;52.128;21.068;2024-03-17T01:11:06;5.10;;;1.90;;
5060;SDS011;2549;52.128;21.068;2024-03-17T01:13:34;5.13;;;1.65;;
5060;SDS011;2549;52.128;21.068;2024-03-17T01:16:06;8.52;;;2.50;;
5060;SDS011;2549;52.128;21.068;2024-03-17T01:18:32;8.00;;;1.67;;
5060;SDS011;2549;52.128;21.068;2024-03-17T01:21:00;9.07;;;1.80;;
5060;SDS011;2549;52.128;21.068;2024-03-17T01:23:25;5.90;;;1.60;;
5060;SDS011;2549;52.128;21.068;2024-03-17T01:25:51;6.83;;;1.67;;
5060;SDS011;2549;52.128;21.068;2024-03-17T01:28:17;10.32;;;2.05;;
5060;SDS011;2549;52.128;21.068;2024-03-17T01:30:43;11.00;;;2.10;;
5060;SDS011;2549;52.128;21.068;2024-03-17T01:33:10;8.20;;;1.75;;
5060;SDS011;2549;52.128;21.068;2024-03-17T01:35:37;13.55;;;1.90;;
5060;SDS011;2549;52.128;21.068;2024-03-17T01:38:03;11.55;;;2.08;;
5060;SDS011;2549;52.128;21.068;2024-03-17T01:40:29;9.07;;;1.73;;
5060;SDS011;2549;52.128;21.068;2024-03-17T01:42:55;10.67;;;1.90;;
5060;SDS011;2549;52.128;21.068;2024-03-17T01:45:24;5.97;;;2.30;;
5060;SDS011;2549;52.128;21.068;2024-03-17T01:47:53;11.18;;;1.80;;
5060;SDS011;2549;52.128;21.068;2024-03-17T01:50:19;7.78;;;1.67;;
5060;SDS011;2549;52.128;21.068;2024-03-17T01:52:53;6.60;;;1.50;;
5060;SDS011;2549;52.128;21.068;2024-03-17T01:55:25;10.25;;;2.83;;
5060;SDS011;2549;52.128;21.068;2024-03-17T01:57:52;12.07;;;2.20;;
5060;SDS011;2549;52.128;21.068;2024-03-17T02:00:18;8.85;;;1.73;;
5060;SDS011;2549;52.128;21.068;2024-03-17T02:02:45;9.45;;;1.50;;
5060;SDS011;2549;52.128;21.068;2024-03-17T02:05:11;10.60;;;1.95;;
5060;SDS011;2549;52.128;21.068;2024-03-17T02:07:37;10.93;;;1.77;;
5060;SDS011;2549;52.128;21.068;2024-03-17T02:10:03;12.97;;;2.30;;
5060;SDS011;2549;52.128;21.068;2024-03-17T02:12:30;5.85;;;1.70;;
5060;SDS011;2549;52.128;21.068;2024-03-17T02:14:57;5.80;;;2.33;;
5060;SDS011;2549;52.128;21.068;2024-03-17T02:17:24;10.02;;;1.83;;
5060;SDS011;2549;52.128;21.068;2024-03-17T02:19:51;9.65;;;2.15;;
5060;SDS011;2549;52.128;21.068;2024-03-17T02:22:17;9.98;;;1.70;;
5060;SDS011;2549;52.128;21.068;2024-03-17T02:24:43;9.05;;;1.30;;
5060;SDS011;2549;52.128;21.068;2024-03-17T02:27:09;8.73;;;1.88;;
5060;SDS011;2549;52.128;21.068;2024-03-17T02:29:35;8.85;;;1.83;;
5060;SDS011;2549;52.128;21.068;2024-03-17T02:32:05;12.20;;;1.73;;
5060;SDS011;2549;52.128;21.068;2024-03-17T02:34:37;4.47;;;1.25;;
5060;SDS011;2549;52.128;21.068;2024-03-17T02:37:06;7.90;;;1.93;;
5060;SDS011;2549;52.128;21.068;2024-03-17T02:39:33;8.88;;;1.77;;
5060;SDS011;2549;52.128;21.068;2024-03-17T02:42:09;11.65;;;2.03;;
5060;SDS011;2549;52.128;21.068;2024-03-17T02:44:37;8.13;;;1.85;;
5060;SDS011;2549;52.128;21.068;2024-03-17T02:47:04;11.82;;;1.77;;
5060;SDS011;2549;52.128;21.068;2024-03-17T02:49:31;6.95;;;1.73;;
5060;SDS011;2549;52.128;21.068;2024-03-17T02:52:02;4.88;;;1.73;;
5060;SDS011;2549;52.128;21.068;2024-03-17T02:54:30;9.00;;;2.33;;
5060;SDS011;2549;52.128;21.068;2024-03-17T02:56:56;8.25;;;1.77;;
5060;SDS011;2549;52.128;21.068;2024-03-17T02:59:23;4.32;;;1.40;;
5060;SDS011;2549;52.128;21.068;2024-03-17T03:01:49;13.73;;;1.98;;
5060;SDS011;2549;52.128;21.068;2024-03-17T03:04:16;6.68;;;1.70;;
5060;SDS011;2549;52.128;21.068;2024-03-17T03:06:42;8.03;;;1.90;;
5060;SDS011;2549;52.128;21.068;2024-03-17T03:09:08;7.45;;;1.35;;
5060;SDS011;2549;52.128;21.068;2024-03-17T03:11:39;6.47;;;1.55;;
5060;SDS011;2549;52.128;21.068;2024-03-17T03:14:06;8.00;;;2.00;;
5060;SDS011;2549;52.128;21.068;2024-03-17T03:16:33;15.90;;;1.90;;
5060;SDS011;2549;52.128;21.068;2024-03-17T03:18:59;12.30;;;2.37;;
5060;SDS011;2549;52.128;21.068;2024-03-17T03:21:25;10.70;;;2.20;;
5060;SDS011;2549;52.128;21.068;2024-03-17T03:23:51;7.45;;;1.60;;
5060;SDS011;2549;52.128;21.068;2024-03-17T03:26:17;9.05;;;1.83;;
5060;SDS011;2549;52.128;21.068;2024-03-17T03:28:43;7.43;;;2.28;;
5060;SDS011;2549;52.128;21.068;2024-03-17T03:31:13;8.00;;;2.00;;
5060;SDS011;2549;52.128;21.068;2024-03-17T03:33:42;10.27;;;2.03;;
5060;SDS011;2549;52.128;21.068;2024-03-17T03:36:12;9.73;;;2.10;;
5060;SDS011;2549;52.128;21.068;2024-03-17T03:38:39;11.38;;;2.35;;
5060;SDS011;2549;52.128;21.068;2024-03-17T03:43:38;17.73;;;2.58;;
5060;SDS011;2549;52.128;21.068;2024-03-17T03:46:04;14.63;;;2.33;;
5060;SDS011;2549;52.128;21.068;2024-03-17T03:48:32;7.60;;;1.98;;
5060;SDS011;2549;52.128;21.068;2024-03-17T03:51:02;8.57;;;1.90;;
5060;SDS011;2549;52.128;21.068;2024-03-17T03:53:32;12.93;;;2.85;;
5060;SDS011;2549;52.128;21.068;2024-03-17T03:55:59;8.43;;;1.83;;
5060;SDS011;2549;52.128;21.068;2024-03-17T03:58:32;13.30;;;1.38;;
5060;SDS011;2549;52.128;21.068;2024-03-17T04:01:00;12.02;;;2.35;;
5060;SDS011;2549;52.128;21.068;2024-03-17T04:03:29;16.58;;;3.95;;
5060;SDS011;2549;52.128;21.068;2024-03-17T04:06:05;6.60;;;2.50;;
5060;SDS011;2549;52.128;21.068;2024-03-17T04:08:33;11.82;;;1.95;;
5060;SDS011;2549;52.128;21.068;2024-03-17T04:11:00;8.10;;;2.40;;
5060;SDS011;2549;52.128;21.068;2024-03-17T04:13:27;16.83;;;2.80;;
5060;SDS011;2549;52.128;21.068;2024-03-17T04:15:55;4.10;;;1.83;;
5060;SDS011;2549;52.128;21.068;2024-03-17T04:18:25;11.23;;;1.98;;
5060;SDS011;2549;52.128;21.068;2024-03-17T04:20:55;10.05;;;2.10;;
5060;SDS011;2549;52.128;21.068;2024-03-17T04:23:21;9.60;;;2.30;;
5060;SDS011;2549;52.128;21.068;2024-03-17T04:25:48;9.50;;;2.15;;
5060;SDS011;2549;52.128;21.068;2024-03-17T04:28:15;13.38;;;2.40;;
5060;SDS011;2549;52.128;21.068;2024-03-17T04:30:41;7.85;;;2.53;;
5060;SDS011;2549;52.128;21.068;2024-03-17T04:33:11;11.15;;;2.90;;
5060;SDS011;2549;52.128;21.068;2024-03-17T04:35:38;7.55;;;2.33;;
5060;SDS011;2549;52.128;21.068;2024-03-17T04:38:05;5.18;;;2.17;;
5060;SDS011;2549;52.128;21.068;2024-03-17T04:40:32;10.57;;;2.92;;
5060;SDS011;2549;52.128;21.068;2024-03-17T04:42:58;7.47;;;2.33;;
5060;SDS011;2549;52.128;21.068;2024-03-17T04:45:24;9.07;;;2.20;;
5060;SDS011;2549;52.128;21.068;2024-03-17T04:47:50;12.77;;;2.60;;
5060;SDS011;2549;52.128;21.068;2024-03-17T04:50:16;6.50;;;1.90;;
5060;SDS011;2549;52.128;21.068;2024-03-17T04:52:42;7.63;;;2.20;;
5060;SDS011;2549;52.128;21.068;2024-03-17T04:55:08;7.70;;;2.60;;
5060;SDS011;2549;52.128;21.068;2024-03-17T04:57:34;8.63;;;2.30;;
5060;SDS011;2549;52.128;21.068;2024-03-17T05:00:01;18.40;;;2.03;;
5060;SDS011;2549;52.128;21.068;2024-03-17T05:02:28;7.93;;;2.72;;
5060;SDS011;2549;52.128;21.068;2024-03-17T05:04:56;9.32;;;3.58;;
5060;SDS011;2549;52.128;21.068;2024-03-17T05:07:22;6.83;;;2.10;;
5060;SDS011;2549;52.128;21.068;2024-03-17T05:09:48;12.10;;;2.90;;
5060;SDS011;2549;52.128;21.068;2024-03-17T05:12:15;5.20;;;1.95;;
5060;SDS011;2549;52.128;21.068;2024-03-17T05:14:41;7.10;;;2.10;;
5060;SDS011;2549;52.128;21.068;2024-03-17T05:17:07;12.00;;;3.23;;
5060;SDS011;2549;52.128;21.068;2024-03-17T05:19:33;8.23;;;2.05;;
5060;SDS011;2549;52.128;21.068;2024-03-17T05:21:59;9.03;;;2.47;;
5060;SDS011;2549;52.128;21.068;2024-03-17T05:24:25;6.73;;;2.00;;
5060;SDS011;2549;52.128;21.068;2024-03-17T05:26:51;8.20;;;2.28;;
5060;SDS011;2549;52.128;21.068;2024-03-17T05:29:18;14.60;;;3.47;;
5060;SDS011;2549;52.128;21.068;2024-03-17T05:31:43;10.37;;;1.87;;
5060;SDS011;2549;52.128;21.068;2024-03-17T05:34:10;4.00;;;2.00;;
5060;SDS011;2549;52.128;21.068;2024-03-17T05:36:36;12.13;;;2.17;;
5060;SDS011;2549;52.128;21.068;2024-03-17T05:39:02;5.55;;;2.30;;
5060;SDS011;2549;52.128;21.068;2024-03-17T05:41:29;4.43;;;1.90;;
5060;SDS011;2549;52.128;21.068;2024-03-17T05:43:54;11.37;;;3.10;;
5060;SDS011;2549;52.128;21.068;2024-03-17T05:46:24;9.35;;;2.65;;
5060;SDS011;2549;52.128;21.068;2024-03-17T05:48:53;5.55;;;2.05;;
5060;SDS011;2549;52.128;21.068;2024-03-17T05:51:19;6.13;;;2.00;;
5060;SDS011;2549;52.128;21.068;2024-03-17T05:53:45;4.63;;;1.97;;
5060;SDS011;2549;52.128;21.068;2024-03-17T05:56:12;9.98;;;1.98;;
5060;SDS011;2549;52.128;21.068;2024-03-17T05:58:38;4.40;;;1.90;;
5060;SDS011;2549;52.128;21.068;2024-03-17T06:01:05;5.63;;;2.25;;
5060;SDS011;2549;52.128;21.068;2024-03-17T06:03:34;15.60;;;2.85;;
5060;SDS011;2549;52.128;21.068;2024-03-17T06:06:03;7.05;;;2.35;;
5060;SDS011;2549;52.128;21.068;2024-03-17T06:08:32;8.48;;;2.55;;
5060;SDS011;2549;52.128;21.068;2024-03-17T06:10:59;7.03;;;2.30;;
5060;SDS011;2549;52.128;21.068;2024-03-17T06:13:28;6.47;;;2.30;;
5060;SDS011;2549;52.128;21.068;2024-03-17T06:15:54;12.68;;;2.60;;
5060;SDS011;2549;52.128;21.068;2024-03-17T06:18:26;18.10;;;2.50;;
5060;SDS011;2549;52.128;21.068;2024-03-17T06:20:53;8.55;;;2.22;;
5060;SDS011;2549;52.128;21.068;2024-03-17T06:23:19;12.73;;;3.17;;
5060;SDS011;2549;52.128;21.068;2024-03-17T06:25:46;3.15;;;2.00;;
5060;SDS011;2549;52.128;21.068;2024-03-17T06:28:13;4.95;;;2.38;;
5060;SDS011;2549;52.128;21.068;2024-03-17T06:30:40;2.78;;;1.45;;
5060;SDS011;2549;52.128;21.068;2024-03-17T06:33:07;5.72;;;2.20;;
5060;SDS011;2549;52.128;21.068;2024-03-17T06:35:36;4.72;;;1.90;;
5060;SDS011;2549;52.128;21.068;2024-03-17T06:38:02;6.22;;;2.22;;
5060;SDS011;2549;52.128;21.068;2024-03-17T06:40:28;5.50;;;1.92;;
5060;SDS011;2549;52.128;21.068;2024-03-17T06:42:54;6.30;;;2.17;;
5060;SDS011;2549;52.128;21.068;2024-03-17T06:45:20;16.35;;;1.98;;
5060;SDS011;2549;52.128;21.068;2024-03-17T06:47:46;3.73;;;1.90;;
5060;SDS011;2549;52.128;21.068;2024-03-17T06:50:12;7.23;;;2.53;;
5060;SDS011;2549;52.128;21.068;2024-03-17T06:52:38;6.35;;;1.58;;
5060;SDS011;2549;52.128;21.068;2024-03-17T06:55:04;6.80;;;2.03;;
5060;SDS011;2549;52.128;21.068;2024-03-17T06:57:32;11.50;;;1.70;;
5060;SDS011;2549;52.128;21.068;2024-03-17T06:59:59;5.50;;;1.80;;
5060;SDS011;2549;52.128;21.068;2024-03-17T07:02:25;5.65;;;1.58;;
5060;SDS011;2549;52.128;21.068;2024-03-17T07:04:51;7.57;;;1.90;;
5060;SDS011;2549;52.128;21.068;2024-03-17T07:07:17;4.47;;;2.07;;
5060;SDS011;2549;52.128;21.068;2024-03-17T07:09:43;6.13;;;1.77;;
5060;SDS011;2549;52.128;21.068;2024-03-17T07:12:09;7.93;;;1.57;;
5060;SDS011;2549;52.128;21.068;2024-03-17T07:14:36;4.53;;;1.70;;
5060;SDS011;2549;52.128;21.068;2024-03-17T07:17:03;6.17;;;2.23;;
5060;SDS011;2549;52.128;21.068;2024-03-17T07:19:29;4.30;;;1.17;;
5060;SDS011;2549;52.128;21.068;2024-03-17T07:21:59;5.03;;;1.58;;
5060;SDS011;2549;52.128;21.068;2024-03-17T07:24:25;9.43;;;1.60;;
5060;SDS011;2549;52.128;21.068;2024-03-17T07:26:51;6.03;;;1.47;;
5060;SDS011;2549;52.128;21.068;2024-03-17T07:29:17;7.27;;;1.77;;
5060;SDS011;2549;52.128;21.068;2024-03-17T07:31:44;11.60;;;1.70;;
5060;SDS011;2549;52.128;21.068;2024-03-17T07:34:10;7.37;;;1.80;;
5060;SDS011;2549;52.128;21.068;2024-03-17T07:36:36;11.02;;;2.10;;
5060;SDS011;2549;52.128;21.068;2024-03-17T07:39:02;2.93;;;1.80;;
5060;SDS011;2549;52.128;21.068;2024-03-17T07:41:28;2.90;;;1.50;;
5060;SDS011;2549;52.128;21.068;2024-03-17T07:43:54;3.00;;;1.57;;
5060;SDS011;2549;52.128;21.068;2024-03-17T07:46:20;6.00;;;1.57;;
5060;SDS011;2549;52.128;21.068;2024-03-17T07:48:45;5.77;;;1.90;;
5060;SDS011;2549;52.128;21.068;2024-03-17T07:51:15;7.77;;;1.60;;
5060;SDS011;2549;52.128;21.068;2024-03-17T07:53:42;8.82;;;2.20;;
5060;SDS011;2549;52.128;21.068;2024-03-17T07:56:17;10.60;;;1.70;;
5060;SDS011;2549;52.128;21.068;2024-03-17T07:58:44;4.78;;;1.30;;
5060;SDS011;2549;52.128;21.068;2024-03-17T08:01:14;15.23;;;2.20;;
5060;SDS011;2549;52.128;21.068;2024-03-17T08:03:45;5.20;;;2.10;;
5060;SDS011;2549;52.128;21.068;2024-03-17T08:06:11;9.00;;;2.00;;
5060;SDS011;2549;52.128;21.068;2024-03-17T08:08:37;1.90;;;1.43;;
5060;SDS011;2549;52.128;21.068;2024-03-17T08:11:03;3.83;;;1.80;;
5060;SDS011;2549;52.128;21.068;2024-03-17T08:13:30;7.53;;;2.00;;
5060;SDS011;2549;52.128;21.068;2024-03-17T08:16:01;9.40;;;2.20;;
5060;SDS011;2549;52.128;21.068;2024-03-17T08:18:28;10.18;;;2.20;;
5060;SDS011;2549;52.128;21.068;2024-03-17T08:20:54;7.25;;;2.17;;
5060;SDS011;2549;52.128;21.068;2024-03-17T08:23:21;5.72;;;1.75;;
5060;SDS011;2549;52.128;21.068;2024-03-17T08:25:54;7.50;;;1.80;;
5060;SDS011;2549;52.128;21.068;2024-03-17T08:28:24;6.55;;;1.88;;
5060;SDS011;2549;52.128;21.068;2024-03-17T08:30:55;8.35;;;2.78;;
5060;SDS011;2549;52.128;21.068;2024-03-17T08:33:22;8.23;;;1.63;;
5060;SDS011;2549;52.128;21.068;2024-03-17T08:35:52;11.20;;;2.35;;
5060;SDS011;2549;52.128;21.068;2024-03-17T08:38:22;10.82;;;2.25;;
5060;SDS011;2549;52.128;21.068;2024-03-17T08:40:51;4.85;;;1.77;;
5060;SDS011;2549;52.128;21.068;2024-03-17T08:43:18;12.23;;;2.55;;
5060;SDS011;2549;52.128;21.068;2024-03-17T08:45:45;2.80;;;1.48;;
5060;SDS011;2549;52.128;21.068;2024-03-17T08:48:19;5.07;;;1.92;;
5060;SDS011;2549;52.128;21.068;2024-03-17T08:50:51;9.33;;;1.83;;
5060;SDS011;2549;52.128;21.068;2024-03-17T08:53:19;5.75;;;2.50;;
5060;SDS011;2549;52.128;21.068;2024-03-17T08:55:46;9.15;;;2.50;;
5060;SDS011;2549;52.128;21.068;2024-03-17T08:58:11;3.30;;;1.90;;
5060;SDS011;2549;52.128;21.068;2024-03-17T09:00:38;2.97;;;1.93;;
5060;SDS011;2549;52.128;21.068;2024-03-17T09:03:04;6.40;;;2.10;;
5060;SDS011;2549;52.128;21.068;2024-03-17T09:05:32;9.32;;;1.80;;
5060;SDS011;2549;52.128;21.068;2024-03-17T09:07:59;7.82;;;1.85;;
5060;SDS011;2549;52.128;21.068;2024-03-17T09:10:24;8.73;;;2.50;;
5060;SDS011;2549;52.128;21.068;2024-03-17T09:12:50;8.40;;;2.70;;
5060;SDS011;2549;52.128;21.068;2024-03-17T09:15:16;7.13;;;1.97;;
5060;SDS011;2549;52.128;21.068;2024-03-17T09:17:42;5.20;;;2.07;;
5060;SDS011;2549;52.128;21.068;2024-03-17T09:20:10;2.70;;;1.90;;
5060;SDS011;2549;52.128;21.068;2024-03-17T09:22:37;10.65;;;2.20;;
5060;SDS011;2549;52.128;21.068;2024-03-17T09:25:07;9.02;;;2.67;;
5060;SDS011;2549;52.128;21.068;2024-03-17T09:27:34;11.60;;;2.55;;
5060;SDS011;2549;52.128;21.068;2024-03-17T09:30:04;6.77;;;2.27;;
5060;SDS011;2549;52.128;21.068;2024-03-17T09:32:35;2.15;;;1.55;;
5060;SDS011;2549;52.128;21.068;2024-03-17T09:35:01;4.38;;;1.92;;
5060;SDS011;2549;52.128;21.068;2024-03-17T09:37:30;5.95;;;1.60;;
5060;SDS011;2549;52.128;21.068;2024-03-17T09:39:57;3.30;;;1.07;;
5060;SDS011;2549;52.128;21.068;2024-03-17T09:42:25;3.80;;;1.58;;
5060;SDS011;2549;52.128;21.068;2024-03-17T09:44:55;5.65;;;1.60;;
5060;SDS011;2549;52.128;21.068;2024-03-17T09:47:24;1.60;;;1.20;;
5060;SDS011;2549;52.128;21.068;2024-03-17T09:49:51;3.53;;;1.10;;
5060;SDS011;2549;52.128;21.068;2024-03-17T09:52:19;4.43;;;1.73;;
5060;SDS011;2549;52.128;21.068;2024-03-17T09:55:00;1.13;;;1.02;;
5060;SDS011;2549;52.128;21.068;2024-03-17T09:57:27;3.55;;;1.55;;
5060;SDS011;2549;52.128;21.068;2024-03-17T09:59:55;3.53;;;1.52;;
5060;SDS011;2549;52.128;21.068;2024-03-17T10:02:21;3.63;;;1.37;;
5060;SDS011;2549;52.128;21.068;2024-03-17T10:04:48;7.38;;;2.10;;
5060;SDS011;2549;52.128;21.068;2024-03-17T10:07:14;2.97;;;1.58;;
5060;SDS011;2549;52.128;21.068;2024-03-17T10:09:41;4.65;;;1.85;;
5060;SDS011;2549;52.128;21.068;2024-03-17T10:12:29;2.63;;;1.80;;
5060;SDS011;2549;52.128;21.068;2024-03-17T10:14:59;6.90;;;1.50;;
5060;SDS011;2549;52.128;21.068;2024-03-17T10:17:29;1.25;;;1.15;;
5060;SDS011;2549;52.128;21.068;2024-03-17T10:20:14;4.20;;;2.10;;
5060;SDS011;2549;52.128;21.068;2024-03-17T10:22:58;9.32;;;1.88;;
5060;SDS011;2549;52.128;21.068;2024-03-17T10:25:26;2.78;;;1.40;;
5060;SDS011;2549;52.128;21.068;2024-03-17T10:27:53;4.10;;;1.77;;
5060;SDS011;2549;52.128;21.068;2024-03-17T10:30:20;2.42;;;1.30;;
5060;SDS011;2549;52.128;21.068;2024-03-17T10:32:58;1.40;;;1.30;;
5060;SDS011;2549;52.128;21.068;2024-03-17T10:37:58;8.45;;;1.52;;
5060;SDS011;2549;52.128;21.068;2024-03-17T10:40:26;5.93;;;1.40;;
5060;SDS011;2549;52.128;21.068;2024-03-17T10:42:53;7.85;;;1.73;;
5060;SDS011;2549;52.128;21.068;2024-03-17T10:45:19;1.42;;;1.30;;
5060;SDS011;2549;52.128;21.068;2024-03-17T10:47:48;11.27;;;1.70;;
5060;SDS011;2549;52.128;21.068;2024-03-17T10:50:24;2.55;;;1.02;;
5060;SDS011;2549;52.128;21.068;2024-03-17T10:52:50;1.35;;;1.20;;
5060;SDS011;2549;52.128;21.068;2024-03-17T10:55:22;2.60;;;1.20;;
5060;SDS011;2549;52.128;21.068;2024-03-17T10:57:51;5.10;;;1.33;;
5060;SDS011;2549;52.128;21.068;2024-03-17T11:00:21;3.95;;;1.27;;
5060;SDS011;2549;52.128;21.068;2024-03-17T11:02:53;5.88;;;2.20;;
5060;SDS011;2549;52.128;21.068;2024-03-17T11:05:26;2.17;;;1.47;;
5060;SDS011;2549;52.128;21.068;2024-03-17T11:07:59;4.65;;;1.20;;
5060;SDS011;2549;52.128;21.068;2024-03-17T11:10:29;4.35;;;1.48;;
5060;SDS011;2549;52.128;21.068;2024-03-17T11:13:04;4.10;;;1.60;;
5060;SDS011;2549;52.128;21.068;2024-03-17T11:18:44;1.23;;;1.10;;
5060;SDS011;2549;52.128;21.068;2024-03-17T11:23:56;3.87;;;1.07;;
5060;SDS011;2549;52.128;21.068;2024-03-17T11:26:28;2.22;;;1.70;;
5060;SDS011;2549;52.128;21.068;2024-03-17T11:28:57;9.07;;;1.52;;
5060;SDS011;2549;52.128;21.068;2024-03-17T11:34:52;3.53;;;1.50;;
5060;SDS011;2549;52.128;21.068;2024-03-17T11:37:01;2.60;;;1.02;;
5060;SDS011;2549;52.128;21.068;2024-03-17T11:42:21;6.00;;;1.58;;
5060;SDS011;2549;52.128;21.068;2024-03-17T11:44:58;1.58;;;1.33;;
5060;SDS011;2549;52.128;21.068;2024-03-17T11:47:41;1.35;;;1.20;;
5060;SDS011;2549;52.128;21.068;2024-03-17T11:50:08;1.23;;;1.13;;
5060;SDS011;2549;52.128;21.068;2024-03-17T11:52:36;1.70;;;1.20;;
5060;SDS011;2549;52.128;21.068;2024-03-17T11:55:02;4.63;;;1.60;;
5060;SDS011;2549;52.128;21.068;2024-03-17T11:57:29;1.15;;;1.13;;
5060;SDS011;2549;52.128;21.068;2024-03-17T11:59:55;2.60;;;1.35;;
5060;SDS011;2549;52.128;21.068;2024-03-17T12:02:23;1.20;;;1.10;;
5060;SDS011;2549;52.128;21.068;2024-03-17T12:04:59;1.63;;;1.40;;
5060;SDS011;2549;52.128;21.068;2024-03-17T12:07:26;2.42;;;1.75;;
5060;SDS011;2549;52.128;21.068;2024-03-17T12:09:56;0.88;;;0.88;;
5060;SDS011;2549;52.128;21.068;2024-03-17T12:12:27;0.80;;;0.80;;
5060;SDS011;2549;52.128;21.068;2024-03-17T12:15:00;1.60;;;0.70;;
5060;SDS011;2549;52.128;21.068;2024-03-17T12:17:28;2.65;;;0.95;;
5060;SDS011;2549;52.128;21.068;2024-03-17T12:19:54;1.45;;;0.93;;
5060;SDS011;2549;52.128;21.068;2024-03-17T12:22:24;1.10;;;1.00;;
5060;SDS011;2549;52.128;21.068;2024-03-17T12:24:53;2.33;;;1.92;;
5060;SDS011;2549;52.128;21.068;2024-03-17T12:27:23;1.25;;;0.90;;
5060;SDS011;2549;52.128;21.068;2024-03-17T12:29:51;0.80;;;0.77;;
5060;SDS011;2549;52.128;21.068;2024-03-17T12:32:21;0.88;;;0.85;;
5060;SDS011;2549;52.128;21.068;2024-03-17T12:34:52;3.65;;;0.90;;
5060;SDS011;2549;52.128;21.068;2024-03-17T12:37:25;1.02;;;1.02;;
5060;SDS011;2549;52.128;21.068;2024-03-17T12:39:57;0.90;;;0.90;;
5060;SDS011;2549;52.128;21.068;2024-03-17T12:42:26;0.77;;;0.77;;
5060;SDS011;2549;52.128;21.068;2024-03-17T12:44:56;1.33;;;1.10;;
5060;SDS011;2549;52.128;21.068;2024-03-17T12:49:50;1.13;;;0.77;;
5060;SDS011;2549;52.128;21.068;2024-03-17T12:52:18;2.50;;;0.83;;
5060;SDS011;2549;52.128;21.068;2024-03-17T12:57:44;0.85;;;0.85;;
5060;SDS011;2549;52.128;21.068;2024-03-17T13:00:28;1.58;;;1.20;;
5060;SDS011;2549;52.128;21.068;2024-03-17T13:02:58;5.97;;;1.90;;
5060;SDS011;2549;52.128;21.068;2024-03-17T13:05:24;1.92;;;1.10;;
5060;SDS011;2549;52.128;21.068;2024-03-17T13:07:50;1.10;;;1.10;;
5060;SDS011;2549;52.128;21.068;2024-03-17T13:10:20;4.78;;;1.10;;
5060;SDS011;2549;52.128;21.068;2024-03-17T13:12:46;1.20;;;1.10;;
5060;SDS011;2549;52.128;21.068;2024-03-17T13:15:13;1.25;;;1.00;;
5060;SDS011;2549;52.128;21.068;2024-03-17T13:17:41;1.92;;;1.30;;
5060;SDS011;2549;52.128;21.068;2024-03-17T13:20:12;1.50;;;1.30;;
5060;SDS011;2549;52.128;21.068;2024-03-17T13:22:43;1.17;;;1.08;;
5060;SDS011;2549;52.128;21.068;2024-03-17T13:25:19;1.70;;;0.90;;
5060;SDS011;2549;52.128;21.068;2024-03-17T13:27:49;0.93;;;0.88;;
5060;SDS011;2549;52.128;21.068;2024-03-17T13:30:16;1.00;;;0.70;;
5060;SDS011;2549;52.128;21.068;2024-03-17T13:32:44;1.55;;;1.25;;
5060;SDS011;2549;52.128;21.068;2024-03-17T13:35:17;2.35;;;1.05;;
5060;SDS011;2549;52.128;21.068;2024-03-17T13:37:45;1.27;;;1.17;;
5060;SDS011;2549;52.128;21.068;2024-03-17T13:40:11;1.63;;;1.10;;
5060;SDS011;2549;52.128;21.068;2024-03-17T13:42:44;2.40;;;1.30;;
5060;SDS011;2549;52.128;21.068;2024-03-17T13:45:11;1.52;;;0.90;;
5060;SDS011;2549;52.128;21.068;2024-03-17T13:47:41;2.83;;;0.95;;
5060;SDS011;2549;52.128;21.068;2024-03-17T13:50:11;4.13;;;1.30;;
5060;SDS011;2549;52.128;21.068;2024-03-17T13:52:39;1.27;;;1.13;;
5060;SDS011;2549;52.128;21.068;2024-03-17T13:55:06;1.48;;;1.00;;
5060;SDS011;2549;52.128;21.068;2024-03-17T13:57:37;2.33;;;1.45;;
5060;SDS011;2549;52.128;21.068;2024-03-17T14:00:03;5.60;;;1.20;;
5060;SDS011;2549;52.128;21.068;2024-03-17T14:02:32;2.85;;;1.27;;
5060;SDS011;2549;52.128;21.068;2024-03-17T14:05:00;1.17;;;1.17;;
5060;SDS011;2549;52.128;21.068;2024-03-17T14:07:27;1.23;;;0.80;;
5060;SDS011;2549;52.128;21.068;2024-03-17T14:09:53;1.13;;;1.03;;
5060;SDS011;2549;52.128;21.068;2024-03-17T14:12:20;0.97;;;0.97;;
5060;SDS011;2549;52.128;21.068;2024-03-17T14:14:46;0.90;;;0.90;;
5060;SDS011;2549;52.128;21.068;2024-03-17T14:17:12;1.60;;;1.27;;
5060;SDS011;2549;52.128;21.068;2024-03-17T14:19:38;1.43;;;1.20;;
5060;SDS011;2549;52.128;21.068;2024-03-17T14:22:03;1.77;;;1.03;;
5060;SDS011;2549;52.128;21.068;2024-03-17T14:24:30;1.20;;;1.20;;
5060;SDS011;2549;52.128;21.068;2024-03-17T14:26:56;1.48;;;1.38;;
5060;SDS011;2549;52.128;21.068;2024-03-17T14:29:22;1.93;;;1.33;;
5060;SDS011;2549;52.128;21.068;2024-03-17T14:31:48;1.47;;;0.87;;
5060;SDS011;2549;52.128;21.068;2024-03-17T14:34:14;1.43;;;0.90;;
5060;SDS011;2549;52.128;21.068;2024-03-17T14:36:40;2.60;;;0.93;;
5060;SDS011;2549;52.128;21.068;2024-03-17T14:39:05;1.07;;;0.97;;
5060;SDS011;2549;52.128;21.068;2024-03-17T14:41:33;1.05;;;0.95;;
5060;SDS011;2549;52.128;21.068;2024-03-17T14:43:59;1.17;;;0.90;;
5060;SDS011;2549;52.128;21.068;2024-03-17T14:46:25;0.85;;;0.85;;
5060;SDS011;2549;52.128;21.068;2024-03-17T14:48:52;1.38;;;0.80;;
5060;SDS011;2549;52.128;21.068;2024-03-17T14:51:19;0.70;;;0.70;;
5060;SDS011;2549;52.128;21.068;2024-03-17T14:53:49;0.88;;;0.88;;
5060;SDS011;2549;52.128;21.068;2024-03-17T14:56:20;0.73;;;0.70;;
5060;SDS011;2549;52.128;21.068;2024-03-17T14:58:45;1.10;;;1.00;;
5060;SDS011;2549;52.128;21.068;2024-03-17T15:01:12;0.70;;;0.70;;
5060;SDS011;2549;52.128;21.068;2024-03-17T15:03:39;0.65;;;0.65;;
5060;SDS011;2549;52.128;21.068;2024-03-17T15:06:08;0.70;;;0.70;;
5060;SDS011;2549;52.128;21.068;2024-03-17T15:08:35;1.13;;;1.13;;
5060;SDS011;2549;52.128;21.068;2024-03-17T15:11:01;1.00;;;0.90;;
5060;SDS011;2549;52.128;21.068;2024-03-17T15:13:28;0.80;;;0.80;;
5060;SDS011;2549;52.128;21.068;2024-03-17T15:15:54;1.27;;;0.70;;
5060;SDS011;2549;52.128;21.068;2024-03-17T15:18:20;0.60;;;0.60;;
5060;SDS011;2549;52.128;21.068;2024-03-17T15:20:53;1.58;;;1.08;;
5060;SDS011;2549;52.128;21.068;2024-03-17T15:23:20;0.80;;;0.80;;